Период от 10.05.2021 до 11.05.2021

Показания с 10.05.2021 по 11.05.2021 ДКХЗ_показания_за_период_10.05.2021-11.05.2021.csv
Пост Дата/время Пыль PM2,5 Пыль PM10 CO SO2 NO2 NO H2S NH3 Направление ветра в градусах Ветер Температура Давление Влажность Осадки
PAN1 00:00:04 10.05.2021 0.0197 0.0275 1.2310 0.0120 0.0639 0.1099 0.0019 0.0047 185.2500 1.1900 8.8850 0.0047 759.6500 47.7800
PAN1 00:20:05 10.05.2021 0.0144 0.0272 1.1684 0.0151 0.0645 0.1095 0.0021 0.0060 188.0500 1.3950 8.7950 0.0060 759.7050 48.8550
PAN1 00:40:04 10.05.2021 0.0109 0.0189 1.0478 0.0160 0.0636 0.1090 0.0016 0.0044 197.5500 1.2350 8.7400 0.0044 759.7700 49.1750
PAN1 01:00:05 10.05.2021 0.0087 0.0132 0.9752 0.0131 0.0594 0.1085 0.0017 0.0038 181.6000 0.9650 8.6550 0.0038 759.8000 49.3200
PAN1 01:20:05 10.05.2021 0.0066 0.0106 0.8977 0.0186 0.0585 0.1078 0.0020 0.0055 192.1000 1.0200 8.5650 0.0055 759.8000 48.8200
PAN1 02:00:04 10.05.2021 0.0064 0.0104 0.7802 0.0171 0.0539 0.1066 0.0023 0.0041 189.6190 1.1476 8.2619 0.0041 759.8000 52.3571
PAN1 02:20:04 10.05.2021 0.0073 0.0110 0.7425 0.0181 0.0514 0.1058 0.0022 0.0047 188.9500 1.2100 8.0350 0.0047 759.8000 53.6050
PAN1 02:40:04 10.05.2021 0.0059 0.0085 0.7102 0.0183 0.0492 0.1051 0.0018 0.0051 186.9000 1.2050 7.8000 0.0051 759.8050 56.1250
PAN1 03:00:04 10.05.2021 0.0048 0.0072 0.6792 0.0207 0.0467 0.1043 0.0022 0.0063 187.7000 1.3300 7.7650 0.0063 759.8150 56.0550
PAN1 03:20:05 10.05.2021 0.0048 0.0081 0.6564 0.0188 0.0452 0.1036 0.0019 0.0059 189.0000 1.2250 7.5400 0.0059 759.8000 56.6450
PAN1 03:40:04 10.05.2021 0.0041 0.0059 0.6340 0.0173 0.0433 0.1028 0.0021 0.0043 196.0500 1.0900 7.4400 0.0043 759.8000 57.8350
PAN1 04:00:05 10.05.2021 0.0045 0.0071 0.6211 0.0168 0.0411 0.1021 0.0017 0.0048 193.3000 1.0050 7.3600 0.0048 759.8900 58.9500
PAN1 04:20:05 10.05.2021 0.0049 0.0077 0.6279 0.0165 0.0419 0.1012 0.0018 0.0052 171.9500 1.0150 7.1700 0.0052 759.9000 60.6600
PAN1 04:40:05 10.05.2021 0.0060 0.0126 0.6042 0.0194 0.0427 0.1003 0.0020 0.0055 173.0000 1.2500 6.9550 0.0055 759.9000 62.7100
PAN1 05:00:04 10.05.2021 0.0056 0.0084 0.6450 0.0054 0.0428 0.0998 0.0016 0.0057 175.4500 1.1400 6.9000 0.0057 760.0000 64.2450
PAN1 05:20:05 10.05.2021 0.0067 0.0113 0.6135 0.0030 0.0418 0.0992 0.0023 0.0059 183.5000 1.0400 6.8400 0.0059 760.1000 65.3600
PAN1 05:40:04 10.05.2021 0.0075 0.0127 0.6093 0.0034 0.0419 0.0985 0.0017 0.0041 155.3000 0.5800 6.9500 0.0041 760.1750 65.2200
PAN1 06:00:05 10.05.2021 0.0084 0.0171 0.6128 0.0074 0.0436 0.0978 0.0024 0.0040 171.0500 0.5750 7.2050 0.0040 760.3300 64.7450
PAN1 06:20:04 10.05.2021 0.0155 0.0560 0.8684 0.0056 0.0507 0.0981 0.0020 0.0043 171.6500 0.8350 7.6550 0.0043 760.4050 62.7250
PAN1 06:40:05 10.05.2021 0.0091 0.0215 0.8049 0.0039 0.0569 0.0979 0.0024 0.0059 189.6500 0.8900 8.0950 0.0059 760.5250 61.4200